sensor_id;sensor_type;location;lat;lon;timestamp;P1;durP1;ratioP1;P2;durP2;ratioP2
18596;SDS011;9428;50.950;6.912;2022-10-16T00:00:48;4.53;;;1.80;;
18596;SDS011;9428;50.950;6.912;2022-10-16T00:03:36;1.85;;;1.50;;
18596;SDS011;9428;50.950;6.912;2022-10-16T00:06:24;2.08;;;1.60;;
18596;SDS011;9428;50.950;6.912;2022-10-16T00:09:12;3.22;;;1.75;;
18596;SDS011;9428;50.950;6.912;2022-10-16T00:11:59;2.17;;;1.75;;
18596;SDS011;9428;50.950;6.912;2022-10-16T00:14:49;4.50;;;2.00;;
18596;SDS011;9428;50.950;6.912;2022-10-16T00:17:36;4.57;;;1.83;;
18596;SDS011;9428;50.950;6.912;2022-10-16T00:20:25;6.07;;;2.10;;
18596;SDS011;9428;50.950;6.912;2022-10-16T00:23:12;5.80;;;1.70;;
18596;SDS011;9428;50.950;6.912;2022-10-16T00:25:59;5.05;;;1.83;;
18596;SDS011;9428;50.950;6.912;2022-10-16T00:28:47;5.72;;;2.13;;
18596;SDS011;9428;50.950;6.912;2022-10-16T00:31:36;2.17;;;1.92;;
18596;SDS011;9428;50.950;6.912;2022-10-16T00:34:23;5.05;;;2.05;;
18596;SDS011;9428;50.950;6.912;2022-10-16T00:37:12;2.78;;;2.15;;
18596;SDS011;9428;50.950;6.912;2022-10-16T00:39:59;5.13;;;2.40;;
18596;SDS011;9428;50.950;6.912;2022-10-16T00:42:47;5.55;;;2.47;;
18596;SDS011;9428;50.950;6.912;2022-10-16T00:45:34;4.70;;;2.53;;
18596;SDS011;9428;50.950;6.912;2022-10-16T00:48:21;3.63;;;2.75;;
18596;SDS011;9428;50.950;6.912;2022-10-16T00:51:08;2.90;;;2.00;;
18596;SDS011;9428;50.950;6.912;2022-10-16T00:53:57;3.45;;;2.50;;
18596;SDS011;9428;50.950;6.912;2022-10-16T00:56:44;5.13;;;2.17;;
18596;SDS011;9428;50.950;6.912;2022-10-16T00:59:34;3.30;;;2.00;;
18596;SDS011;9428;50.950;6.912;2022-10-16T01:02:23;4.15;;;2.58;;
18596;SDS011;9428;50.950;6.912;2022-10-16T01:05:10;3.75;;;2.33;;
18596;SDS011;9428;50.950;6.912;2022-10-16T01:07:58;2.03;;;1.80;;
18596;SDS011;9428;50.950;6.912;2022-10-16T01:10:56;4.90;;;2.10;;
18596;SDS011;9428;50.950;6.912;2022-10-16T01:13:48;2.83;;;1.65;;
18596;SDS011;9428;50.950;6.912;2022-10-16T01:16:40;2.38;;;1.83;;
18596;SDS011;9428;50.950;6.912;2022-10-16T01:19:38;3.33;;;1.75;;
18596;SDS011;9428;50.950;6.912;2022-10-16T01:22:43;3.03;;;1.50;;
18596;SDS011;9428;50.950;6.912;2022-10-16T01:25:49;1.70;;;1.60;;
18596;SDS011;9428;50.950;6.912;2022-10-16T01:29:01;2.72;;;1.63;;
18596;SDS011;9428;50.950;6.912;2022-10-16T01:31:53;2.63;;;1.50;;
18596;SDS011;9428;50.950;6.912;2022-10-16T01:34:49;2.20;;;1.40;;
18596;SDS011;9428;50.950;6.912;2022-10-16T01:37:40;2.67;;;1.80;;
18596;SDS011;9428;50.950;6.912;2022-10-16T01:40:33;2.30;;;1.90;;
18596;SDS011;9428;50.950;6.912;2022-10-16T01:43:22;2.28;;;1.75;;
18596;SDS011;9428;50.950;6.912;2022-10-16T01:46:15;4.20;;;1.77;;
18596;SDS011;9428;50.950;6.912;2022-10-16T01:49:05;2.95;;;1.35;;
18596;SDS011;9428;50.950;6.912;2022-10-16T01:51:54;3.30;;;1.63;;
18596;SDS011;9428;50.950;6.912;2022-10-16T01:54:45;2.85;;;1.33;;
18596;SDS011;9428;50.950;6.912;2022-10-16T01:57:35;6.32;;;1.65;;
18596;SDS011;9428;50.950;6.912;2022-10-16T02:00:26;2.40;;;1.33;;
18596;SDS011;9428;50.950;6.912;2022-10-16T02:03:16;2.75;;;1.85;;
18596;SDS011;9428;50.950;6.912;2022-10-16T02:06:05;4.18;;;1.92;;
18596;SDS011;9428;50.950;6.912;2022-10-16T02:08:54;3.92;;;1.98;;
18596;SDS011;9428;50.950;6.912;2022-10-16T02:11:41;3.33;;;1.90;;
18596;SDS011;9428;50.950;6.912;2022-10-16T02:14:28;3.90;;;1.65;;
18596;SDS011;9428;50.950;6.912;2022-10-16T02:17:17;1.30;;;1.20;;
18596;SDS011;9428;50.950;6.912;2022-10-16T02:20:06;2.35;;;1.15;;
18596;SDS011;9428;50.950;6.912;2022-10-16T02:22:53;2.55;;;1.48;;
18596;SDS011;9428;50.950;6.912;2022-10-16T02:25:42;3.72;;;1.55;;
18596;SDS011;9428;50.950;6.912;2022-10-16T02:28:32;1.83;;;1.52;;
18596;SDS011;9428;50.950;6.912;2022-10-16T02:31:24;3.67;;;1.75;;
18596;SDS011;9428;50.950;6.912;2022-10-16T02:34:14;3.90;;;1.63;;
18596;SDS011;9428;50.950;6.912;2022-10-16T02:37:04;3.53;;;1.50;;
18596;SDS011;9428;50.950;6.912;2022-10-16T02:39:52;2.75;;;1.50;;
18596;SDS011;9428;50.950;6.912;2022-10-16T02:42:41;3.80;;;1.15;;
18596;SDS011;9428;50.950;6.912;2022-10-16T02:45:28;4.38;;;1.63;;
18596;SDS011;9428;50.950;6.912;2022-10-16T02:48:16;1.50;;;1.38;;
18596;SDS011;9428;50.950;6.912;2022-10-16T02:51:03;2.63;;;1.90;;
18596;SDS011;9428;50.950;6.912;2022-10-16T02:53:52;3.53;;;1.80;;
18596;SDS011;9428;50.950;6.912;2022-10-16T02:56:39;1.75;;;1.33;;
18596;SDS011;9428;50.950;6.912;2022-10-16T02:59:26;6.18;;;1.55;;
18596;SDS011;9428;50.950;6.912;2022-10-16T03:02:13;1.60;;;1.20;;
18596;SDS011;9428;50.950;6.912;2022-10-16T03:05:01;2.35;;;1.23;;
18596;SDS011;9428;50.950;6.912;2022-10-16T03:07:48;1.98;;;1.35;;
18596;SDS011;9428;50.950;6.912;2022-10-16T03:10:36;2.17;;;1.48;;
18596;SDS011;9428;50.950;6.912;2022-10-16T03:13:24;2.00;;;1.10;;
18596;SDS011;9428;50.950;6.912;2022-10-16T03:16:11;8.02;;;1.85;;
18596;SDS011;9428;50.950;6.912;2022-10-16T03:18:58;5.15;;;2.08;;
18596;SDS011;9428;50.950;6.912;2022-10-16T03:21:45;2.63;;;1.45;;
18596;SDS011;9428;50.950;6.912;2022-10-16T03:24:33;1.65;;;1.40;;
18596;SDS011;9428;50.950;6.912;2022-10-16T03:27:21;2.35;;;1.48;;
18596;SDS011;9428;50.950;6.912;2022-10-16T03:30:09;2.60;;;1.70;;
18596;SDS011;9428;50.950;6.912;2022-10-16T03:32:56;1.55;;;1.30;;
18596;SDS011;9428;50.950;6.912;2022-10-16T03:35:50;2.10;;;1.30;;
18596;SDS011;9428;50.950;6.912;2022-10-16T03:38:38;1.92;;;1.30;;
18596;SDS011;9428;50.950;6.912;2022-10-16T03:41:25;3.38;;;1.80;;
18596;SDS011;9428;50.950;6.912;2022-10-16T03:44:14;3.58;;;1.40;;
18596;SDS011;9428;50.950;6.912;2022-10-16T03:47:01;1.60;;;1.27;;
18596;SDS011;9428;50.950;6.912;2022-10-16T03:49:48;5.03;;;1.27;;
18596;SDS011;9428;50.950;6.912;2022-10-16T03:52:36;2.45;;;1.25;;
18596;SDS011;9428;50.950;6.912;2022-10-16T03:55:23;1.10;;;1.00;;
18596;SDS011;9428;50.950;6.912;2022-10-16T03:58:10;2.80;;;1.45;;
18596;SDS011;9428;50.950;6.912;2022-10-16T04:00:59;1.48;;;1.10;;
18596;SDS011;9428;50.950;6.912;2022-10-16T04:03:46;2.83;;;0.98;;
18596;SDS011;9428;50.950;6.912;2022-10-16T04:06:33;3.70;;;0.93;;
18596;SDS011;9428;50.950;6.912;2022-10-16T04:09:20;2.38;;;1.10;;
18596;SDS011;9428;50.950;6.912;2022-10-16T04:12:08;1.50;;;1.10;;
18596;SDS011;9428;50.950;6.912;2022-10-16T04:14:55;2.05;;;1.08;;
18596;SDS011;9428;50.950;6.912;2022-10-16T04:17:43;1.00;;;0.90;;
18596;SDS011;9428;50.950;6.912;2022-10-16T04:20:31;2.47;;;1.00;;
18596;SDS011;9428;50.950;6.912;2022-10-16T04:23:18;1.08;;;0.80;;
18596;SDS011;9428;50.950;6.912;2022-10-16T04:26:06;1.85;;;0.95;;
18596;SDS011;9428;50.950;6.912;2022-10-16T04:28:53;0.98;;;0.88;;
18596;SDS011;9428;50.950;6.912;2022-10-16T04:31:40;2.25;;;1.27;;
18596;SDS011;9428;50.950;6.912;2022-10-16T04:34:29;2.63;;;1.10;;
18596;SDS011;9428;50.950;6.912;2022-10-16T04:37:16;2.70;;;1.40;;
18596;SDS011;9428;50.950;6.912;2022-10-16T04:40:04;2.40;;;1.17;;
18596;SDS011;9428;50.950;6.912;2022-10-16T04:42:52;3.25;;;1.50;;
18596;SDS011;9428;50.950;6.912;2022-10-16T04:45:39;1.98;;;1.38;;
18596;SDS011;9428;50.950;6.912;2022-10-16T04:48:26;4.28;;;1.90;;
18596;SDS011;9428;50.950;6.912;2022-10-16T04:51:15;7.45;;;2.47;;
18596;SDS011;9428;50.950;6.912;2022-10-16T04:54:02;5.85;;;2.45;;
18596;SDS011;9428;50.950;6.912;2022-10-16T04:56:49;3.80;;;1.98;;
18596;SDS011;9428;50.950;6.912;2022-10-16T04:59:37;1.60;;;1.10;;
18596;SDS011;9428;50.950;6.912;2022-10-16T05:02:24;1.35;;;1.05;;
18596;SDS011;9428;50.950;6.912;2022-10-16T05:05:11;4.50;;;1.23;;
18596;SDS011;9428;50.950;6.912;2022-10-16T05:08:01;2.17;;;1.27;;
18596;SDS011;9428;50.950;6.912;2022-10-16T05:10:49;3.20;;;1.10;;
18596;SDS011;9428;50.950;6.912;2022-10-16T05:13:36;2.55;;;1.35;;
18596;SDS011;9428;50.950;6.912;2022-10-16T05:16:23;3.75;;;1.65;;
18596;SDS011;9428;50.950;6.912;2022-10-16T05:19:10;3.92;;;1.50;;
18596;SDS011;9428;50.950;6.912;2022-10-16T05:21:58;1.73;;;1.30;;
18596;SDS011;9428;50.950;6.912;2022-10-16T05:24:46;3.22;;;1.20;;
18596;SDS011;9428;50.950;6.912;2022-10-16T05:27:34;4.07;;;1.55;;
18596;SDS011;9428;50.950;6.912;2022-10-16T05:30:21;3.35;;;1.52;;
18596;SDS011;9428;50.950;6.912;2022-10-16T05:33:08;1.90;;;1.45;;
18596;SDS011;9428;50.950;6.912;2022-10-16T05:35:55;3.50;;;1.63;;
18596;SDS011;9428;50.950;6.912;2022-10-16T05:38:42;3.13;;;1.35;;
18596;SDS011;9428;50.950;6.912;2022-10-16T05:41:31;2.53;;;1.30;;
18596;SDS011;9428;50.950;6.912;2022-10-16T05:44:18;5.78;;;1.27;;
18596;SDS011;9428;50.950;6.912;2022-10-16T05:47:05;2.15;;;1.40;;
18596;SDS011;9428;50.950;6.912;2022-10-16T05:49:53;1.83;;;1.10;;
18596;SDS011;9428;50.950;6.912;2022-10-16T05:52:41;1.48;;;1.38;;
18596;SDS011;9428;50.950;6.912;2022-10-16T05:55:28;3.50;;;1.30;;
18596;SDS011;9428;50.950;6.912;2022-10-16T05:58:17;1.85;;;1.23;;
18596;SDS011;9428;50.950;6.912;2022-10-16T06:01:05;1.40;;;1.30;;
18596;SDS011;9428;50.950;6.912;2022-10-16T06:03:53;1.38;;;1.08;;
18596;SDS011;9428;50.950;6.912;2022-10-16T06:06:40;2.50;;;1.40;;
18596;SDS011;9428;50.950;6.912;2022-10-16T06:09:27;1.65;;;1.48;;
18596;SDS011;9428;50.950;6.912;2022-10-16T06:12:14;2.72;;;1.17;;
18596;SDS011;9428;50.950;6.912;2022-10-16T06:15:04;1.48;;;1.38;;
18596;SDS011;9428;50.950;6.912;2022-10-16T06:17:51;1.95;;;1.20;;
18596;SDS011;9428;50.950;6.912;2022-10-16T06:20:38;2.38;;;1.45;;
18596;SDS011;9428;50.950;6.912;2022-10-16T06:23:28;2.65;;;1.40;;
18596;SDS011;9428;50.950;6.912;2022-10-16T06:26:16;2.75;;;1.40;;
18596;SDS011;9428;50.950;6.912;2022-10-16T06:29:04;1.42;;;1.17;;
18596;SDS011;9428;50.950;6.912;2022-10-16T06:31:53;2.75;;;1.05;;
18596;SDS011;9428;50.950;6.912;2022-10-16T06:34:40;2.63;;;1.35;;
18596;SDS011;9428;50.950;6.912;2022-10-16T06:37:27;1.33;;;1.20;;
18596;SDS011;9428;50.950;6.912;2022-10-16T06:40:15;3.05;;;1.40;;
18596;SDS011;9428;50.950;6.912;2022-10-16T06:43:02;5.55;;;1.55;;
18596;SDS011;9428;50.950;6.912;2022-10-16T06:45:52;4.88;;;1.40;;
18596;SDS011;9428;50.950;6.912;2022-10-16T06:48:41;1.50;;;1.40;;
18596;SDS011;9428;50.950;6.912;2022-10-16T06:51:28;4.70;;;1.52;;
18596;SDS011;9428;50.950;6.912;2022-10-16T06:54:17;2.15;;;1.20;;
18596;SDS011;9428;50.950;6.912;2022-10-16T06:57:04;1.40;;;1.30;;
18596;SDS011;9428;50.950;6.912;2022-10-16T06:59:51;2.67;;;1.42;;
18596;SDS011;9428;50.950;6.912;2022-10-16T07:02:39;5.28;;;1.50;;
18596;SDS011;9428;50.950;6.912;2022-10-16T07:05:27;1.98;;;1.30;;
18596;SDS011;9428;50.950;6.912;2022-10-16T07:08:15;3.10;;;1.38;;
18596;SDS011;9428;50.950;6.912;2022-10-16T07:11:03;1.10;;;1.00;;
18596;SDS011;9428;50.950;6.912;2022-10-16T07:13:51;4.95;;;1.33;;
18596;SDS011;9428;50.950;6.912;2022-10-16T07:16:38;3.00;;;1.20;;
18596;SDS011;9428;50.950;6.912;2022-10-16T07:19:25;2.97;;;1.35;;
18596;SDS011;9428;50.950;6.912;2022-10-16T07:22:15;1.20;;;1.10;;
18596;SDS011;9428;50.950;6.912;2022-10-16T07:25:02;1.50;;;1.10;;
18596;SDS011;9428;50.950;6.912;2022-10-16T07:27:49;2.55;;;1.10;;
18596;SDS011;9428;50.950;6.912;2022-10-16T07:30:37;1.50;;;1.17;;
18596;SDS011;9428;50.950;6.912;2022-10-16T07:33:24;1.60;;;1.10;;
18596;SDS011;9428;50.950;6.912;2022-10-16T07:36:11;1.55;;;1.00;;
18596;SDS011;9428;50.950;6.912;2022-10-16T07:39:00;1.23;;;1.13;;
18596;SDS011;9428;50.950;6.912;2022-10-16T07:41:47;1.10;;;1.00;;
18596;SDS011;9428;50.950;6.912;2022-10-16T07:44:34;2.88;;;0.93;;
18596;SDS011;9428;50.950;6.912;2022-10-16T07:47:21;2.60;;;1.13;;
18596;SDS011;9428;50.950;6.912;2022-10-16T07:50:08;2.60;;;1.30;;
18596;SDS011;9428;50.950;6.912;2022-10-16T07:52:56;2.85;;;1.10;;
18596;SDS011;9428;50.950;6.912;2022-10-16T07:55:44;1.63;;;1.30;;
18596;SDS011;9428;50.950;6.912;2022-10-16T07:58:32;1.42;;;1.15;;
18596;SDS011;9428;50.950;6.912;2022-10-16T08:01:22;3.65;;;1.10;;
18596;SDS011;9428;50.950;6.912;2022-10-16T08:04:09;3.60;;;1.20;;
18596;SDS011;9428;50.950;6.912;2022-10-16T08:06:56;2.83;;;1.30;;
18596;SDS011;9428;50.950;6.912;2022-10-16T08:09:44;3.15;;;1.10;;
18596;SDS011;9428;50.950;6.912;2022-10-16T08:12:32;2.97;;;1.20;;
18596;SDS011;9428;50.950;6.912;2022-10-16T08:15:19;2.80;;;1.40;;
18596;SDS011;9428;50.950;6.912;2022-10-16T08:18:07;1.20;;;1.10;;
18596;SDS011;9428;50.950;6.912;2022-10-16T08:20:56;1.80;;;1.20;;
18596;SDS011;9428;50.950;6.912;2022-10-16T08:23:45;5.55;;;1.35;;
18596;SDS011;9428;50.950;6.912;2022-10-16T08:26:32;1.45;;;1.10;;
18596;SDS011;9428;50.950;6.912;2022-10-16T08:29:21;1.58;;;1.20;;
18596;SDS011;9428;50.950;6.912;2022-10-16T08:32:08;5.07;;;1.30;;
18596;SDS011;9428;50.950;6.912;2022-10-16T08:34:55;3.35;;;1.20;;
18596;SDS011;9428;50.950;6.912;2022-10-16T08:37:42;2.20;;;1.30;;
18596;SDS011;9428;50.950;6.912;2022-10-16T08:40:31;2.35;;;1.10;;
18596;SDS011;9428;50.950;6.912;2022-10-16T08:43:32;2.72;;;1.30;;
18596;SDS011;9428;50.950;6.912;2022-10-16T08:46:35;3.03;;;1.10;;
18596;SDS011;9428;50.950;6.912;2022-10-16T08:49:29;4.72;;;0.90;;
18596;SDS011;9428;50.950;6.912;2022-10-16T08:52:17;5.60;;;1.27;;
18596;SDS011;9428;50.950;6.912;2022-10-16T08:55:04;4.18;;;1.27;;
18596;SDS011;9428;50.950;6.912;2022-10-16T08:57:52;1.48;;;1.10;;
18596;SDS011;9428;50.950;6.912;2022-10-16T09:00:39;2.53;;;1.15;;
18596;SDS011;9428;50.950;6.912;2022-10-16T09:03:35;2.47;;;1.10;;
18596;SDS011;9428;50.950;6.912;2022-10-16T09:06:40;1.50;;;1.10;;
18596;SDS011;9428;50.950;6.912;2022-10-16T09:09:39;4.65;;;0.98;;
18596;SDS011;9428;50.950;6.912;2022-10-16T09:12:40;1.40;;;1.00;;
18596;SDS011;9428;50.950;6.912;2022-10-16T09:15:37;1.35;;;1.00;;
18596;SDS011;9428;50.950;6.912;2022-10-16T09:18:30;0.90;;;0.90;;
18596;SDS011;9428;50.950;6.912;2022-10-16T09:21:25;1.85;;;0.90;;
18596;SDS011;9428;50.950;6.912;2022-10-16T09:24:16;3.38;;;0.95;;
18596;SDS011;9428;50.950;6.912;2022-10-16T09:27:06;3.42;;;0.98;;
18596;SDS011;9428;50.950;6.912;2022-10-16T09:29:56;0.80;;;0.80;;
18596;SDS011;9428;50.950;6.912;2022-10-16T09:32:43;2.85;;;0.75;;
18596;SDS011;9428;50.950;6.912;2022-10-16T09:35:35;1.23;;;1.13;;
18596;SDS011;9428;50.950;6.912;2022-10-16T09:38:25;1.83;;;0.80;;
18596;SDS011;9428;50.950;6.912;2022-10-16T09:41:15;1.15;;;0.73;;
18596;SDS011;9428;50.950;6.912;2022-10-16T09:44:06;1.02;;;0.60;;
18596;SDS011;9428;50.950;6.912;2022-10-16T09:47:05;1.10;;;0.55;;
18596;SDS011;9428;50.950;6.912;2022-10-16T09:50:00;3.42;;;0.90;;
18596;SDS011;9428;50.950;6.912;2022-10-16T09:52:52;2.67;;;0.88;;
18596;SDS011;9428;50.950;6.912;2022-10-16T09:55:50;1.75;;;0.75;;
18596;SDS011;9428;50.950;6.912;2022-10-16T09:58:41;2.55;;;0.80;;
18596;SDS011;9428;50.950;6.912;2022-10-16T10:01:31;2.10;;;0.80;;
18596;SDS011;9428;50.950;6.912;2022-10-16T10:04:23;3.72;;;0.80;;
18596;SDS011;9428;50.950;6.912;2022-10-16T10:07:17;2.00;;;1.40;;
18596;SDS011;9428;50.950;6.912;2022-10-16T10:10:19;1.65;;;0.98;;
18596;SDS011;9428;50.950;6.912;2022-10-16T10:13:15;1.10;;;0.70;;
18596;SDS011;9428;50.950;6.912;2022-10-16T10:16:05;4.20;;;0.70;;
18596;SDS011;9428;50.950;6.912;2022-10-16T10:18:57;1.27;;;0.80;;
18596;SDS011;9428;50.950;6.912;2022-10-16T10:21:45;2.10;;;0.80;;
18596;SDS011;9428;50.950;6.912;2022-10-16T10:24:33;2.10;;;0.90;;
18596;SDS011;9428;50.950;6.912;2022-10-16T10:27:21;1.52;;;0.80;;
18596;SDS011;9428;50.950;6.912;2022-10-16T10:30:18;3.03;;;1.13;;
18596;SDS011;9428;50.950;6.912;2022-10-16T10:33:12;1.48;;;1.00;;
18596;SDS011;9428;50.950;6.912;2022-10-16T10:36:10;1.23;;;1.00;;
18596;SDS011;9428;50.950;6.912;2022-10-16T10:39:06;1.67;;;0.80;;
18596;SDS011;9428;50.950;6.912;2022-10-16T10:42:04;0.55;;;0.50;;
18596;SDS011;9428;50.950;6.912;2022-10-16T10:45:22;0.68;;;0.43;;
18596;SDS011;9428;50.950;6.912;2022-10-16T10:48:19;1.00;;;0.70;;
18596;SDS011;9428;50.950;6.912;2022-10-16T10:51:17;8.27;;;0.85;;
18596;SDS011;9428;50.950;6.912;2022-10-16T10:54:12;3.20;;;0.88;;
18596;SDS011;9428;50.950;6.912;2022-10-16T10:57:06;0.88;;;0.45;;
18596;SDS011;9428;50.950;6.912;2022-10-16T11:00:03;1.38;;;0.63;;
18596;SDS011;9428;50.950;6.912;2022-10-16T11:03:06;3.55;;;0.73;;
18596;SDS011;9428;50.950;6.912;2022-10-16T11:06:06;0.85;;;0.80;;
18596;SDS011;9428;50.950;6.912;2022-10-16T11:08:58;1.88;;;0.70;;
18596;SDS011;9428;50.950;6.912;2022-10-16T11:11:51;4.90;;;0.88;;
18596;SDS011;9428;50.950;6.912;2022-10-16T11:14:44;2.75;;;0.60;;
18596;SDS011;9428;50.950;6.912;2022-10-16T11:17:38;1.35;;;0.68;;
18596;SDS011;9428;50.950;6.912;2022-10-16T11:20:29;4.28;;;0.60;;
18596;SDS011;9428;50.950;6.912;2022-10-16T11:23:21;4.53;;;1.15;;
18596;SDS011;9428;50.950;6.912;2022-10-16T11:26:13;3.50;;;0.80;;
18596;SDS011;9428;50.950;6.912;2022-10-16T11:29:07;1.38;;;0.93;;
18596;SDS011;9428;50.950;6.912;2022-10-16T11:32:01;2.15;;;0.90;;
18596;SDS011;9428;50.950;6.912;2022-10-16T11:34:59;1.83;;;0.80;;
18596;SDS011;9428;50.950;6.912;2022-10-16T11:37:52;3.58;;;0.80;;
18596;SDS011;9428;50.950;6.912;2022-10-16T11:40:43;1.00;;;0.60;;
18596;SDS011;9428;50.950;6.912;2022-10-16T11:43:37;4.43;;;0.88;;
18596;SDS011;9428;50.950;6.912;2022-10-16T11:46:27;3.17;;;1.10;;
18596;SDS011;9428;50.950;6.912;2022-10-16T11:49:18;1.80;;;0.90;;
18596;SDS011;9428;50.950;6.912;2022-10-16T11:52:11;2.63;;;0.90;;
18596;SDS011;9428;50.950;6.912;2022-10-16T11:55:05;0.70;;;0.50;;
18596;SDS011;9428;50.950;6.912;2022-10-16T11:58:01;2.45;;;0.70;;
18596;SDS011;9428;50.950;6.912;2022-10-16T12:00:54;0.90;;;0.50;;
18596;SDS011;9428;50.950;6.912;2022-10-16T12:03:45;1.13;;;0.60;;
18596;SDS011;9428;50.950;6.912;2022-10-16T12:06:40;4.32;;;0.90;;
18596;SDS011;9428;50.950;6.912;2022-10-16T12:09:31;1.40;;;0.60;;
18596;SDS011;9428;50.950;6.912;2022-10-16T12:12:25;2.50;;;0.50;;
18596;SDS011;9428;50.950;6.912;2022-10-16T12:15:19;1.35;;;0.80;;
18596;SDS011;9428;50.950;6.912;2022-10-16T12:18:20;1.55;;;0.63;;
18596;SDS011;9428;50.950;6.912;2022-10-16T12:21:08;2.03;;;0.63;;
18596;SDS011;9428;50.950;6.912;2022-10-16T12:24:02;3.05;;;0.70;;
18596;SDS011;9428;50.950;6.912;2022-10-16T12:26:50;3.47;;;1.08;;
18596;SDS011;9428;50.950;6.912;2022-10-16T12:29:40;1.23;;;0.60;;
18596;SDS011;9428;50.950;6.912;2022-10-16T12:32:30;1.55;;;0.65;;
18596;SDS011;9428;50.950;6.912;2022-10-16T12:35:19;0.95;;;0.60;;
18596;SDS011;9428;50.950;6.912;2022-10-16T12:38:15;2.95;;;0.70;;
18596;SDS011;9428;50.950;6.912;2022-10-16T12:41:04;3.60;;;1.40;;
18596;SDS011;9428;50.950;6.912;2022-10-16T12:43:53;1.58;;;1.23;;
18596;SDS011;9428;50.950;6.912;2022-10-16T12:46:42;3.45;;;2.35;;
18596;SDS011;9428;50.950;6.912;2022-10-16T12:49:31;1.65;;;1.00;;
18596;SDS011;9428;50.950;6.912;2022-10-16T12:52:26;1.05;;;0.80;;
18596;SDS011;9428;50.950;6.912;2022-10-16T12:55:15;2.70;;;1.23;;
18596;SDS011;9428;50.950;6.912;2022-10-16T12:58:09;3.13;;;1.13;;
18596;SDS011;9428;50.950;6.912;2022-10-16T13:01:07;2.03;;;0.80;;
18596;SDS011;9428;50.950;6.912;2022-10-16T13:10:32;0.52;;;0.47;;
18596;SDS011;9428;50.950;6.912;2022-10-16T13:13:36;1.70;;;0.82;;
18596;SDS011;9428;50.950;6.912;2022-10-16T13:16:40;3.05;;;1.00;;
18596;SDS011;9428;50.950;6.912;2022-10-16T13:19:39;2.70;;;0.95;;
18596;SDS011;9428;50.950;6.912;2022-10-16T13:22:32;2.38;;;0.73;;
18596;SDS011;9428;50.950;6.912;2022-10-16T13:25:28;1.42;;;0.70;;
18596;SDS011;9428;50.950;6.912;2022-10-16T13:28:27;2.97;;;1.60;;
18596;SDS011;9428;50.950;6.912;2022-10-16T13:31:17;1.52;;;1.17;;
18596;SDS011;9428;50.950;6.912;2022-10-16T13:34:10;0.63;;;0.50;;
18596;SDS011;9428;50.950;6.912;2022-10-16T13:37:02;2.45;;;0.70;;
18596;SDS011;9428;50.950;6.912;2022-10-16T13:40:05;2.10;;;0.70;;
18596;SDS011;9428;50.950;6.912;2022-10-16T13:43:04;4.07;;;1.05;;
18596;SDS011;9428;50.950;6.912;2022-10-16T13:45:55;1.00;;;0.57;;
18596;SDS011;9428;50.950;6.912;2022-10-16T13:48:44;1.35;;;0.77;;
18596;SDS011;9428;50.950;6.912;2022-10-16T13:51:53;1.48;;;0.80;;
18596;SDS011;9428;50.950;6.912;2022-10-16T13:54:42;1.45;;;0.65;;
18596;SDS011;9428;50.950;6.912;2022-10-16T13:57:29;0.63;;;0.50;;
18596;SDS011;9428;50.950;6.912;2022-10-16T14:00:17;0.93;;;0.70;;
18596;SDS011;9428;50.950;6.912;2022-10-16T14:03:12;1.48;;;0.73;;
18596;SDS011;9428;50.950;6.912;2022-10-16T14:06:01;3.75;;;0.73;;
18596;SDS011;9428;50.950;6.912;2022-10-16T14:08:52;1.42;;;0.80;;
18596;SDS011;9428;50.950;6.912;2022-10-16T14:11:48;2.28;;;0.75;;
18596;SDS011;9428;50.950;6.912;2022-10-16T14:14:40;1.30;;;0.80;;
18596;SDS011;9428;50.950;6.912;2022-10-16T14:17:29;1.63;;;0.93;;
18596;SDS011;9428;50.950;6.912;2022-10-16T14:20:20;1.80;;;0.80;;
18596;SDS011;9428;50.950;6.912;2022-10-16T14:23:21;0.73;;;0.73;;
18596;SDS011;9428;50.950;6.912;2022-10-16T14:26:15;2.33;;;0.90;;
18596;SDS011;9428;50.950;6.912;2022-10-16T14:29:11;0.63;;;0.50;;
18596;SDS011;9428;50.950;6.912;2022-10-16T14:31:59;2.55;;;1.00;;
18596;SDS011;9428;50.950;6.912;2022-10-16T14:34:52;1.10;;;0.70;;
18596;SDS011;9428;50.950;6.912;2022-10-16T14:37:40;3.55;;;2.50;;
18596;SDS011;9428;50.950;6.912;2022-10-16T14:40:28;4.05;;;2.60;;
18596;SDS011;9428;50.950;6.912;2022-10-16T14:43:19;5.07;;;2.70;;
18596;SDS011;9428;50.950;6.912;2022-10-16T14:46:12;14.10;;;8.15;;
18596;SDS011;9428;50.950;6.912;2022-10-16T14:49:03;10.00;;;6.05;;
18596;SDS011;9428;50.950;6.912;2022-10-16T14:51:59;11.45;;;5.88;;
18596;SDS011;9428;50.950;6.912;2022-10-16T14:54:48;5.15;;;3.00;;
18596;SDS011;9428;50.950;6.912;2022-10-16T14:57:35;4.63;;;2.10;;
18596;SDS011;9428;50.950;6.912;2022-10-16T15:00:24;4.88;;;1.88;;
18596;SDS011;9428;50.950;6.912;2022-10-16T15:03:13;1.98;;;1.40;;
18596;SDS011;9428;50.950;6.912;2022-10-16T15:06:00;1.88;;;1.17;;
18596;SDS011;9428;50.950;6.912;2022-10-16T15:08:48;2.33;;;1.40;;
18596;SDS011;9428;50.950;6.912;2022-10-16T15:11:35;5.85;;;3.25;;
18596;SDS011;9428;50.950;6.912;2022-10-16T15:14:22;6.50;;;3.75;;
18596;SDS011;9428;50.950;6.912;2022-10-16T15:17:10;7.40;;;2.90;;
18596;SDS011;9428;50.950;6.912;2022-10-16T15:19:59;3.30;;;2.08;;
18596;SDS011;9428;50.950;6.912;2022-10-16T15:22:46;2.25;;;1.52;;
18596;SDS011;9428;50.950;6.912;2022-10-16T15:25:34;4.40;;;1.80;;
18596;SDS011;9428;50.950;6.912;2022-10-16T15:28:25;2.35;;;1.73;;
18596;SDS011;9428;50.950;6.912;2022-10-16T15:31:12;3.85;;;2.03;;
18596;SDS011;9428;50.950;6.912;2022-10-16T15:33:59;3.20;;;2.20;;
18596;SDS011;9428;50.950;6.912;2022-10-16T15:36:51;2.33;;;1.85;;
18596;SDS011;9428;50.950;6.912;2022-10-16T15:39:38;2.53;;;1.90;;
18596;SDS011;9428;50.950;6.912;2022-10-16T15:42:25;2.05;;;1.52;;
18596;SDS011;9428;50.950;6.912;2022-10-16T15:45:12;1.73;;;1.20;;
18596;SDS011;9428;50.950;6.912;2022-10-16T15:48:00;1.67;;;1.27;;
18596;SDS011;9428;50.950;6.912;2022-10-16T15:50:47;1.35;;;1.10;;
18596;SDS011;9428;50.950;6.912;2022-10-16T15:53:36;2.17;;;1.10;;
18596;SDS011;9428;50.950;6.912;2022-10-16T15:56:23;1.65;;;1.20;;
18596;SDS011;9428;50.950;6.912;2022-10-16T15:59:11;1.98;;;0.90;;
18596;SDS011;9428;50.950;6.912;2022-10-16T16:01:58;3.10;;;1.20;;
18596;SDS011;9428;50.950;6.912;2022-10-16T16:04:45;5.22;;;1.35;;
18596;SDS011;9428;50.950;6.912;2022-10-16T16:07:32;2.55;;;1.95;;
18596;SDS011;9428;50.950;6.912;2022-10-16T16:10:22;1.55;;;1.20;;
18596;SDS011;9428;50.950;6.912;2022-10-16T16:13:09;3.30;;;1.25;;
18596;SDS011;9428;50.950;6.912;2022-10-16T16:15:56;1.70;;;1.30;;
18596;SDS011;9428;50.950;6.912;2022-10-16T16:18:44;0.88;;;0.70;;
18596;SDS011;9428;50.950;6.912;2022-10-16T16:21:31;0.60;;;0.60;;
18596;SDS011;9428;50.950;6.912;2022-10-16T16:24:18;1.40;;;0.80;;
18596;SDS011;9428;50.950;6.912;2022-10-16T16:27:07;1.42;;;0.77;;
18596;SDS011;9428;50.950;6.912;2022-10-16T16:29:54;1.45;;;0.93;;
18596;SDS011;9428;50.950;6.912;2022-10-16T16:32:41;2.42;;;0.73;;
18596;SDS011;9428;50.950;6.912;2022-10-16T16:35:29;1.88;;;0.88;;
18596;SDS011;9428;50.950;6.912;2022-10-16T16:38:16;3.25;;;0.98;;
18596;SDS011;9428;50.950;6.912;2022-10-16T16:41:10;5.40;;;2.17;;
18596;SDS011;9428;50.950;6.912;2022-10-16T16:44:03;1.75;;;0.80;;
18596;SDS011;9428;50.950;6.912;2022-10-16T16:46:52;1.10;;;0.90;;
18596;SDS011;9428;50.950;6.912;2022-10-16T16:49:40;1.45;;;0.90;;
18596;SDS011;9428;50.950;6.912;2022-10-16T16:52:28;1.35;;;1.05;;
18596;SDS011;9428;50.950;6.912;2022-10-16T16:55:16;2.08;;;0.95;;
18596;SDS011;9428;50.950;6.912;2022-10-16T16:58:03;3.72;;;1.15;;
18596;SDS011;9428;50.950;6.912;2022-10-16T17:00:51;4.60;;;1.05;;
18596;SDS011;9428;50.950;6.912;2022-10-16T17:03:41;1.60;;;1.20;;
18596;SDS011;9428;50.950;6.912;2022-10-16T17:06:29;1.70;;;1.40;;
18596;SDS011;9428;50.950;6.912;2022-10-16T17:09:16;4.32;;;1.88;;
18596;SDS011;9428;50.950;6.912;2022-10-16T17:12:04;1.83;;;1.35;;
18596;SDS011;9428;50.950;6.912;2022-10-16T17:14:51;2.47;;;1.20;;
18596;SDS011;9428;50.950;6.912;2022-10-16T17:17:39;3.22;;;2.05;;
18596;SDS011;9428;50.950;6.912;2022-10-16T17:20:27;2.90;;;2.00;;
18596;SDS011;9428;50.950;6.912;2022-10-16T17:23:14;2.13;;;1.42;;
18596;SDS011;9428;50.950;6.912;2022-10-16T17:26:04;5.60;;;1.63;;